Time;durP1;ratioP1;P1;durP2;ratioP2;P2;SDS_P1;SDS_P2;PMS_P1;PMS_P2;Temp;Humidity;BMP_temperature;BMP_pressure;BME280_temperature;BME280_humidity;BME280_pressure;Samples;Min_cycle;Max_cycle;Signal;HPM_P1;HPM_P2
2023/04/19 00:01:43;;;;;;;3.20;2.80;;;;;;;;;;5061379;28;20285;-64
2023/04/19 00:04:11;;;;;;;2.60;2.20;;;;;;;;;;5061195;28;20241;-64
2023/04/19 00:06:40;;;;;;;4.97;2.70;;;;;;;;;;5061243;28;20258;-65
2023/04/19 00:09:08;;;;;;;3.33;2.60;;;;;;;;;;5061130;28;20203;-64
2023/04/19 00:11:38;;;;;;;2.80;2.60;;;;;;;;;;5061063;28;20214;-65
2023/04/19 00:14:06;;;;;;;6.40;3.13;;;;;;;;;;5061069;28;20207;-64
2023/04/19 00:16:34;;;;;;;3.40;3.10;;;;;;;;;;5060954;28;20239;-65
2023/04/19 00:19:02;;;;;;;3.97;3.20;;;;;;;;;;5060533;28;20231;-64
2023/04/19 00:21:33;;;;;;;4.87;3.40;;;;;;;;;;5060734;28;20206;-63
2023/04/19 00:24:02;;;;;;;3.40;3.10;;;;;;;;;;5060703;28;20658;-64
2023/04/19 00:26:30;;;;;;;3.60;2.90;;;;;;;;;;5060810;28;20223;-64
2023/04/19 00:29:02;;;;;;;3.47;3.10;;;;;;;;;;5060330;28;20748;-63
2023/04/19 00:31:33;;;;;;;6.03;3.03;;;;;;;;;;5060691;28;20294;-64
2023/04/19 00:34:00;;;;;;;3.53;3.10;;;;;;;;;;5060578;28;20262;-65
2023/04/19 00:36:28;;;;;;;3.83;3.37;;;;;;;;;;5060754;28;20257;-65
2023/04/19 00:38:56;;;;;;;4.27;3.10;;;;;;;;;;5060454;28;20669;-65
2023/04/19 00:41:27;;;;;;;4.43;3.60;;;;;;;;;;5060540;28;20242;-65
2023/04/19 00:43:57;;;;;;;5.60;3.33;;;;;;;;;;5060614;28;20240;-65
2023/04/19 00:46:27;;;;;;;6.00;3.53;;;;;;;;;;5060325;28;20253;-65
2023/04/19 00:48:56;;;;;;;6.07;3.57;;;;;;;;;;5060460;28;20209;-64
2023/04/19 00:51:24;;;;;;;5.77;3.43;;;;;;;;;;5060200;28;20337;-64
2023/04/19 00:53:52;;;;;;;6.03;3.30;;;;;;;;;;5060310;28;20223;-64
2023/04/19 00:56:21;;;;;;;5.03;3.87;;;;;;;;;;5060204;28;20229;-64
2023/04/19 00:58:49;;;;;;;4.37;3.57;;;;;;;;;;5060095;28;20215;-64
2023/04/19 01:01:18;;;;;;;4.50;3.60;;;;;;;;;;5059229;28;20231;-64
2023/04/19 01:03:47;;;;;;;3.63;3.33;;;;;;;;;;5060138;28;20214;-64
2023/04/19 01:06:15;;;;;;;3.93;3.53;;;;;;;;;;5060152;28;20226;-62
2023/04/19 01:08:43;;;;;;;3.43;3.13;;;;;;;;;;5060134;28;20221;-63
2023/04/19 01:11:11;;;;;;;3.47;3.17;;;;;;;;;;5059782;28;20684;-63
2023/04/19 01:13:39;;;;;;;6.50;3.90;;;;;;;;;;5059942;28;20321;-63
2023/04/19 01:16:07;;;;;;;4.20;3.60;;;;;;;;;;5059508;28;20254;-63
2023/04/19 01:18:36;;;;;;;5.17;4.17;;;;;;;;;;5057659;28;20728;-62
2023/04/19 01:21:06;;;;;;;6.03;3.63;;;;;;;;;;5064596;28;20202;-62
2023/04/19 01:23:35;;;;;;;4.43;3.20;;;;;;;;;;5059827;28;20199;-63
2023/04/19 01:26:03;;;;;;;3.47;3.07;;;;;;;;;;5059748;28;20219;-63
2023/04/19 01:28:31;;;;;;;3.80;3.40;;;;;;;;;;5059868;28;20207;-63
2023/04/19 01:30:59;;;;;;;5.23;3.70;;;;;;;;;;5059584;28;20245;-63
2023/04/19 01:33:27;;;;;;;4.37;3.50;;;;;;;;;;5059475;28;20231;-63
2023/04/19 01:35:55;;;;;;;3.87;3.37;;;;;;;;;;5059359;28;20237;-63
2023/04/19 01:38:23;;;;;;;4.80;3.20;;;;;;;;;;5059571;28;20213;-63
2023/04/19 01:40:55;;;;;;;6.63;3.40;;;;;;;;;;5059596;28;20289;-64
2023/04/19 01:43:23;;;;;;;4.90;3.33;;;;;;;;;;5059157;28;20568;-64
2023/04/19 01:45:51;;;;;;;4.33;3.10;;;;;;;;;;5059030;28;20233;-64
2023/04/19 01:48:19;;;;;;;4.50;3.43;;;;;;;;;;5059209;28;20211;-64
2023/04/19 01:50:47;;;;;;;4.90;3.87;;;;;;;;;;5059428;28;20213;-63
2023/04/19 01:53:15;;;;;;;4.47;3.20;;;;;;;;;;5059119;28;20309;-63
2023/04/19 01:55:43;;;;;;;3.80;3.43;;;;;;;;;;5058902;28;20223;-63
2023/04/19 01:58:13;;;;;;;4.17;3.50;;;;;;;;;;5058912;28;20213;-62
2023/04/19 02:00:41;;;;;;;4.47;3.60;;;;;;;;;;5058819;28;20246;-63
2023/04/19 02:03:09;;;;;;;4.50;3.47;;;;;;;;;;5058699;28;20253;-63
2023/04/19 02:05:38;;;;;;;5.90;3.70;;;;;;;;;;5059057;28;20238;-63
2023/04/19 02:08:06;;;;;;;4.80;3.83;;;;;;;;;;5058755;28;20637;-63
2023/04/19 02:10:34;;;;;;;7.73;4.30;;;;;;;;;;5058861;28;20202;-64
2023/04/19 02:13:02;;;;;;;5.63;4.10;;;;;;;;;;5058690;28;20227;-63
2023/04/19 02:15:32;;;;;;;6.17;4.30;;;;;;;;;;5058504;28;20238;-63
2023/04/19 02:18:00;;;;;;;4.33;3.60;;;;;;;;;;5058526;28;20245;-63
2023/04/19 02:20:30;;;;;;;6.93;4.10;;;;;;;;;;5058729;28;20215;-64
2023/04/19 02:22:58;;;;;;;3.50;3.20;;;;;;;;;;5058481;28;20221;-63
2023/04/19 02:25:25;;;;;;;3.70;3.23;;;;;;;;;;5058516;28;20237;-62
2023/04/19 02:27:53;;;;;;;3.03;2.77;;;;;;;;;;5048486;28;20207;-62
2023/04/19 02:30:21;;;;;;;4.63;3.07;;;;;;;;;;5058364;28;20210;-62
2023/04/19 02:32:51;;;;;;;3.97;3.27;;;;;;;;;;5058376;28;20206;-62
2023/04/19 02:35:19;;;;;;;3.17;2.70;;;;;;;;;;5058389;28;20226;-62
2023/04/19 02:37:47;;;;;;;3.43;2.80;;;;;;;;;;5058452;28;20210;-63
2023/04/19 02:40:15;;;;;;;4.67;3.37;;;;;;;;;;5058370;28;20222;-63
2023/04/19 02:42:43;;;;;;;4.20;3.13;;;;;;;;;;5058134;28;20585;-64
2023/04/19 02:45:11;;;;;;;4.60;3.23;;;;;;;;;;5057704;28;20262;-64
2023/04/19 02:47:39;;;;;;;3.37;3.03;;;;;;;;;;5057893;28;20207;-64
2023/04/19 02:50:10;;;;;;;4.97;3.00;;;;;;;;;;5057998;28;20744;-64
2023/04/19 02:52:38;;;;;;;4.33;3.23;;;;;;;;;;5057951;28;20270;-64
2023/04/19 02:55:06;;;;;;;4.87;2.70;;;;;;;;;;5044976;28;20235;-63
2023/04/19 02:57:34;;;;;;;4.23;3.20;;;;;;;;;;5058122;28;20203;-64
2023/04/19 03:00:04;;;;;;;4.40;3.13;;;;;;;;;;5057597;28;20270;-63
2023/04/19 03:02:32;;;;;;;3.23;2.93;;;;;;;;;;5058151;28;20332;-64
2023/04/19 03:05:00;;;;;;;3.93;3.47;;;;;;;;;;5057760;28;20658;-64
2023/04/19 03:07:30;;;;;;;3.77;3.23;;;;;;;;;;5057693;28;20570;-63
2023/04/19 03:09:59;;;;;;;3.70;2.90;;;;;;;;;;5057684;28;20225;-64
2023/04/19 03:12:27;;;;;;;4.83;3.60;;;;;;;;;;5057819;28;20281;-64
2023/04/19 03:14:57;;;;;;;4.77;3.17;;;;;;;;;;5057264;28;20230;-63
2023/04/19 03:17:25;;;;;;;3.50;3.20;;;;;;;;;;5057759;28;20674;-64
2023/04/19 03:19:53;;;;;;;4.17;3.33;;;;;;;;;;5059197;28;20254;-64
2023/04/19 03:22:21;;;;;;;4.07;3.40;;;;;;;;;;5053231;28;20203;-64
2023/04/19 03:24:50;;;;;;;5.30;2.97;;;;;;;;;;5057191;28;20206;-64
2023/04/19 03:27:18;;;;;;;3.47;3.00;;;;;;;;;;5057488;28;20211;-64
2023/04/19 03:29:46;;;;;;;2.97;2.77;;;;;;;;;;5057464;28;20210;-63
2023/04/19 03:32:15;;;;;;;3.90;3.50;;;;;;;;;;5057593;28;20241;-63
2023/04/19 03:34:43;;;;;;;5.47;3.00;;;;;;;;;;5057280;28;20654;-63
2023/04/19 03:37:11;;;;;;;3.77;3.00;;;;;;;;;;5057607;28;20295;-63
2023/04/19 03:39:39;;;;;;;5.83;3.87;;;;;;;;;;5057630;28;20294;-63
2023/04/19 03:42:09;;;;;;;4.13;3.40;;;;;;;;;;5057270;28;20207;-63
2023/04/19 03:44:37;;;;;;;3.87;3.53;;;;;;;;;;5057788;28;20245;-63
2023/04/19 03:47:05;;;;;;;4.27;3.50;;;;;;;;;;5057157;28;20281;-63
2023/04/19 03:49:33;;;;;;;4.80;3.53;;;;;;;;;;5057403;28;20214;-63
2023/04/19 03:52:01;;;;;;;6.10;4.20;;;;;;;;;;5057364;28;20210;-63
2023/04/19 03:54:29;;;;;;;7.10;3.77;;;;;;;;;;5057271;28;20229;-63
2023/04/19 03:56:57;;;;;;;4.93;3.50;;;;;;;;;;5057376;28;20227;-63
2023/04/19 03:59:26;;;;;;;4.70;3.23;;;;;;;;;;5057197;28;20209;-64
2023/04/19 04:01:54;;;;;;;5.47;3.60;;;;;;;;;;5057196;28;20670;-63
2023/04/19 04:04:22;;;;;;;3.80;3.40;;;;;;;;;;5057010;28;20202;-64
2023/04/19 04:06:51;;;;;;;6.03;3.53;;;;;;;;;;5057234;28;20280;-63
2023/04/19 04:09:19;;;;;;;4.20;3.80;;;;;;;;;;5057169;28;20547;-64
2023/04/19 04:11:47;;;;;;;4.03;3.63;;;;;;;;;;5056986;28;20576;-64
2023/04/19 04:14:15;;;;;;;7.07;5.10;;;;;;;;;;5056864;28;20223;-64
2023/04/19 04:16:44;;;;;;;4.47;3.90;;;;;;;;;;5056911;28;20223;-64
2023/04/19 04:19:12;;;;;;;3.47;3.17;;;;;;;;;;5056695;28;20237;-64
2023/04/19 04:21:41;;;;;;;3.70;3.37;;;;;;;;;;5057231;28;20294;-64
2023/04/19 04:24:09;;;;;;;4.57;3.53;;;;;;;;;;5056875;28;20207;-64
2023/04/19 04:26:38;;;;;;;4.07;3.63;;;;;;;;;;5057048;28;20226;-64
2023/04/19 04:29:07;;;;;;;4.07;3.17;;;;;;;;;;5056709;28;20689;-64
2023/04/19 04:31:35;;;;;;;5.87;3.23;;;;;;;;;;5045707;28;20233;-63
2023/04/19 04:34:05;;;;;;;4.70;3.60;;;;;;;;;;5056730;28;20207;-62
2023/04/19 04:36:34;;;;;;;4.47;3.50;;;;;;;;;;5056728;28;20308;-62
2023/04/19 04:39:02;;;;;;;6.27;3.60;;;;;;;;;;5062318;28;20547;-63
2023/04/19 04:41:30;;;;;;;4.47;3.10;;;;;;;;;;5060129;28;20238;-63
2023/04/19 04:44:00;;;;;;;3.90;3.43;;;;;;;;;;5060229;28;20506;-63
2023/04/19 04:46:30;;;;;;;4.40;3.97;;;;;;;;;;5060348;28;20226;-63
2023/04/19 04:48:59;;;;;;;3.90;3.27;;;;;;;;;;5060263;28;20294;-62
2023/04/19 04:51:30;;;;;;;7.23;4.10;;;;;;;;;;5054477;28;20209;-63
2023/04/19 04:53:58;;;;;;;5.60;4.30;;;;;;;;;;5054459;28;20607;-62
2023/04/19 04:56:26;;;;;;;4.53;3.70;;;;;;;;;;5056428;28;20218;-61
2023/04/19 04:58:55;;;;;;;4.43;3.87;;;;;;;;;;5055071;28;20210;-62
2023/04/19 05:01:23;;;;;;;4.23;3.83;;;;;;;;;;5059954;28;20212;-62
2023/04/19 05:03:52;;;;;;;5.30;3.60;;;;;;;;;;5056622;28;20199;-63
2023/04/19 05:06:20;;;;;;;4.43;3.63;;;;;;;;;;5053944;28;20218;-62
2023/04/19 05:08:49;;;;;;;5.50;3.53;;;;;;;;;;5054001;28;20207;-62
2023/04/19 05:11:17;;;;;;;4.27;3.77;;;;;;;;;;5054504;28;20573;-63
2023/04/19 05:13:45;;;;;;;3.50;3.20;;;;;;;;;;5057189;28;20257;-63
2023/04/19 05:16:14;;;;;;;4.67;3.70;;;;;;;;;;5053909;28;20704;-63
2023/04/19 05:18:42;;;;;;;4.60;3.70;;;;;;;;;;5053350;28;20238;-63
2023/04/19 05:21:10;;;;;;;4.53;2.87;;;;;;;;;;5056482;28;20552;-63
2023/04/19 05:23:38;;;;;;;5.57;4.17;;;;;;;;;;5056380;28;20684;-63
2023/04/19 05:26:11;;;;;;;6.33;4.30;;;;;;;;;;5053368;28;20215;-63
2023/04/19 05:28:41;;;;;;;8.47;5.03;;;;;;;;;;5059462;28;20217;-62
2023/04/19 05:31:09;;;;;;;6.20;5.50;;;;;;;;;;5058952;28;20207;-63
2023/04/19 05:33:37;;;;;;;12.87;6.70;;;;;;;;;;5052225;28;20200;-62
2023/04/19 05:36:06;;;;;;;9.37;7.30;;;;;;;;;;5055192;28;20716;-61
2023/04/19 05:38:34;;;;;;;11.00;7.63;;;;;;;;;;5058854;28;20257;-61
2023/04/19 05:41:02;;;;;;;14.53;7.83;;;;;;;;;;5056148;28;20210;-63
2023/04/19 05:43:35;;;;;;;11.27;7.90;;;;;;;;;;5059513;28;20289;-62
2023/04/19 05:46:03;;;;;;;11.83;7.73;;;;;;;;;;5058378;28;20285;-62
2023/04/19 05:48:31;;;;;;;13.50;8.90;;;;;;;;;;5058620;28;20207;-62
2023/04/19 05:50:59;;;;;;;14.20;8.33;;;;;;;;;;5059028;28;20265;-62
2023/04/19 05:53:27;;;;;;;10.47;8.03;;;;;;;;;;5058795;28;20214;-62
2023/04/19 05:55:55;;;;;;;13.30;8.77;;;;;;;;;;5058745;28;20259;-62
2023/04/19 05:58:23;;;;;;;11.97;7.90;;;;;;;;;;5058903;28;20215;-63
2023/04/19 06:00:52;;;;;;;10.57;7.60;;;;;;;;;;5045610;28;20238;-63
2023/04/19 06:03:20;;;;;;;14.13;10.03;;;;;;;;;;5058635;28;20213;-63
2023/04/19 06:05:49;;;;;;;11.70;8.43;;;;;;;;;;5058473;28;20229;-63
2023/04/19 06:08:17;;;;;;;12.50;8.63;;;;;;;;;;5058424;28;20207;-62
2023/04/19 06:10:48;;;;;;;12.87;8.33;;;;;;;;;;5058525;28;20297;-62
2023/04/19 06:13:23;;;;;;;12.03;8.73;;;;;;;;;;5058600;28;20210;-62
2023/04/19 06:15:53;;;;;;;12.73;9.00;;;;;;;;;;5058156;28;20231;-62
2023/04/19 06:18:21;;;;;;;14.90;8.80;;;;;;;;;;5058079;28;20234;-62
2023/04/19 06:20:48;;;;;;;13.50;9.17;;;;;;;;;;5058027;28;20206;-62
2023/04/19 06:23:17;;;;;;;15.30;8.93;;;;;;;;;;5058315;28;20207;-62
2023/04/19 06:25:47;;;;;;;12.23;8.77;;;;;;;;;;5058052;28;20250;-62
2023/04/19 06:28:15;;;;;;;15.93;10.37;;;;;;;;;;5050047;28;20238;-62
2023/04/19 06:30:43;;;;;;;13.97;8.73;;;;;;;;;;5057660;28;20308;-62
2023/04/19 06:33:13;;;;;;;13.37;8.90;;;;;;;;;;5057791;28;20207;-62
2023/04/19 06:35:41;;;;;;;12.47;9.43;;;;;;;;;;5057983;28;20357;-62
2023/04/19 06:38:09;;;;;;;12.57;9.47;;;;;;;;;;5056121;28;20289;-62
2023/04/19 06:40:37;;;;;;;16.90;9.23;;;;;;;;;;5058412;28;20217;-62
2023/04/19 06:43:05;;;;;;;14.23;9.20;;;;;;;;;;5058104;28;20217;-61
2023/04/19 06:45:33;;;;;;;16.10;8.67;;;;;;;;;;5057984;28;20223;-63
2023/04/19 06:48:01;;;;;;;16.50;9.83;;;;;;;;;;5057834;28;20292;-62
2023/04/19 06:50:30;;;;;;;15.70;9.67;;;;;;;;;;5058202;28;20212;-63
2023/04/19 06:52:58;;;;;;;16.73;9.10;;;;;;;;;;5057882;28;20214;-62
2023/04/19 06:55:26;;;;;;;12.83;9.37;;;;;;;;;;5057978;28;20321;-65
2023/04/19 06:57:55;;;;;;;17.73;10.73;;;;;;;;;;5057777;28;20203;-65
2023/04/19 07:00:23;;;;;;;14.43;10.33;;;;;;;;;;5047444;28;20238;-64
2023/04/19 07:02:51;;;;;;;11.57;8.93;;;;;;;;;;5057849;28;20241;-63
2023/04/19 07:05:19;;;;;;;14.70;9.60;;;;;;;;;;5057670;28;20322;-63
2023/04/19 07:07:48;;;;;;;11.03;8.67;;;;;;;;;;5057860;28;20213;-62
2023/04/19 07:10:16;;;;;;;18.13;10.00;;;;;;;;;;5053344;28;20199;-62
2023/04/19 07:12:44;;;;;;;11.23;9.33;;;;;;;;;;5057581;28;20210;-62
2023/04/19 07:15:12;;;;;;;17.50;9.20;;;;;;;;;;5057173;28;20218;-61
2023/04/19 07:17:40;;;;;;;12.83;9.07;;;;;;;;;;5057303;28;20207;-61
2023/04/19 07:20:09;;;;;;;13.37;9.27;;;;;;;;;;5064380;28;20204;-61
2023/04/19 07:22:37;;;;;;;11.67;8.23;;;;;;;;;;5037913;28;20246;-61
2023/04/19 07:25:07;;;;;;;13.97;9.67;;;;;;;;;;5045459;28;20290;-62
2023/04/19 07:27:35;;;;;;;13.67;9.03;;;;;;;;;;5057657;28;20634;-62
2023/04/19 07:30:03;;;;;;;15.33;9.70;;;;;;;;;;5057448;28;20206;-62
2023/04/19 07:32:31;;;;;;;11.90;9.37;;;;;;;;;;5057367;28;20704;-62
2023/04/19 07:34:59;;;;;;;13.30;9.50;;;;;;;;;;5057404;28;20206;-62
2023/04/19 07:37:28;;;;;;;10.63;8.03;;;;;;;;;;5057529;28;20226;-61
2023/04/19 07:39:55;;;;;;;13.00;8.80;;;;;;;;;;5057835;28;20242;-62
2023/04/19 07:42:25;;;;;;;12.50;8.80;;;;;;;;;;5057417;28;20614;-62
2023/04/19 07:44:53;;;;;;;14.50;9.77;;;;;;;;;;5057252;28;20207;-62
2023/04/19 07:47:21;;;;;;;10.80;9.37;;;;;;;;;;5058174;28;20554;-62
2023/04/19 07:49:51;;;;;;;16.77;9.33;;;;;;;;;;5045168;28;20207;-62
2023/04/19 07:52:19;;;;;;;11.60;9.03;;;;;;;;;;5041833;28;20286;-62
2023/04/19 07:54:47;;;;;;;13.73;9.33;;;;;;;;;;5036983;28;20645;-68
2023/04/19 07:57:15;;;;;;;10.73;8.90;;;;;;;;;;5039317;28;20231;-69
2023/04/19 07:59:45;;;;;;;11.53;8.70;;;;;;;;;;5042865;28;20223;-68
2023/04/19 08:02:15;;;;;;;11.93;8.73;;;;;;;;;;5057328;28;20268;-68
2023/04/19 08:04:46;;;;;;;11.87;9.07;;;;;;;;;;5052753;28;20203;-66
2023/04/19 08:07:15;;;;;;;13.27;9.40;;;;;;;;;;5047577;28;20991;-65
2023/04/19 08:09:43;;;;;;;12.73;9.23;;;;;;;;;;5043110;28;20238;-62
2023/04/19 08:12:11;;;;;;;16.77;8.63;;;;;;;;;;5039975;28;20242;-62
2023/04/19 08:14:54;;;;;;;14.90;9.50;;;;;;;;;;5040371;28;20658;-61
2023/04/19 08:17:42;;;;;;;15.90;8.63;;;;;;;;;;5040441;28;20230;-62
2023/04/19 08:20:11;;;;;;;12.67;9.03;;;;;;;;;;5059840;28;20203;-62
2023/04/19 08:22:40;;;;;;;14.03;9.37;;;;;;;;;;5046532;28;20616;-62
2023/04/19 08:25:09;;;;;;;14.57;9.70;;;;;;;;;;5060324;28;20234;-62
2023/04/19 08:27:37;;;;;;;15.97;11.43;;;;;;;;;;5060936;28;20205;-62
2023/04/19 08:30:08;;;;;;;13.00;9.97;;;;;;;;;;5060437;28;20203;-62
2023/04/19 08:32:36;;;;;;;12.63;8.97;;;;;;;;;;5060391;28;20648;-62
2023/04/19 08:35:04;;;;;;;17.93;8.77;;;;;;;;;;5060439;28;20231;-62
2023/04/19 08:37:32;;;;;;;11.13;9.23;;;;;;;;;;5060612;28;20310;-62
2023/04/19 08:40:00;;;;;;;12.17;8.43;;;;;;;;;;5060508;28;20607;-61
2023/04/19 08:42:28;;;;;;;11.77;8.90;;;;;;;;;;5060529;28;20242;-62
2023/04/19 08:45:05;;;;;;;12.17;8.53;;;;;;;;;;5060168;28;20226;-62
2023/04/19 08:47:37;;;;;;;11.13;8.43;;;;;;;;;;5060213;28;20202;-62
2023/04/19 08:50:23;;;;;;;10.73;8.87;;;;;;;;;;5060233;28;20662;-62
2023/04/19 08:53:02;;;;;;;13.17;9.30;;;;;;;;;;5054608;28;20206;-62
2023/04/19 08:55:33;;;;;;;10.27;8.63;;;;;;;;;;5059550;28;20238;-62
2023/04/19 08:58:02;;;;;;;11.10;8.67;;;;;;;;;;5056433;28;20305;-62
2023/04/19 09:00:33;;;;;;;14.90;9.60;;;;;;;;;;5054407;28;20199;-62
2023/04/19 09:03:02;;;;;;;13.13;9.17;;;;;;;;;;5055916;28;20204;-62
2023/04/19 09:05:31;;;;;;;14.63;10.60;;;;;;;;;;5056442;28;20586;-62
2023/04/19 09:08:20;;;;;;;12.60;9.33;;;;;;;;;;5051141;28;20203;-62
2023/04/19 09:10:53;;;;;;;12.53;9.17;;;;;;;;;;5057101;28;20206;-62
2023/04/19 09:13:21;;;;;;;11.20;8.23;;;;;;;;;;5056943;28;20203;-62
2023/04/19 09:15:50;;;;;;;10.87;8.70;;;;;;;;;;5055632;28;20262;-62
2023/04/19 09:18:19;;;;;;;13.73;10.27;;;;;;;;;;5054139;28;20223;-61
2023/04/19 09:20:47;;;;;;;11.07;9.00;;;;;;;;;;5057126;28;20723;-60
2023/04/19 09:23:16;;;;;;;14.57;8.90;;;;;;;;;;5048952;28;20265;-60
2023/04/19 09:25:51;;;;;;;13.20;9.73;;;;;;;;;;5041850;28;20238;-62
2023/04/19 09:28:25;;;;;;;13.87;9.57;;;;;;;;;;5059806;28;20207;-65
2023/04/19 09:30:54;;;;;;;13.93;9.23;;;;;;;;;;5059598;28;20203;-63
2023/04/19 09:33:39;;;;;;;15.03;10.00;;;;;;;;;;5049737;28;20210;-63
2023/04/19 09:36:07;;;;;;;13.80;9.93;;;;;;;;;;5054870;28;20245;-64
2023/04/19 09:38:46;;;;;;;14.60;9.00;;;;;;;;;;5058938;28;20580;-63
2023/04/19 09:41:14;;;;;;;12.40;8.50;;;;;;;;;;5059219;28;20210;-64
2023/04/19 09:43:42;;;;;;;11.10;8.80;;;;;;;;;;5059100;28;20217;-63
2023/04/19 09:46:30;;;;;;;13.07;8.80;;;;;;;;;;5061116;28;20230;-63
2023/04/19 09:49:19;;;;;;;12.10;9.17;;;;;;;;;;5051475;28;20199;-63
2023/04/19 09:52:07;;;;;;;12.67;8.73;;;;;;;;;;5054216;28;20210;-64
2023/04/19 09:54:35;;;;;;;12.87;8.53;;;;;;;;;;5059126;28;20213;-64
2023/04/19 09:57:04;;;;;;;13.87;9.67;;;;;;;;;;5057360;28;20226;-64
2023/04/19 09:59:32;;;;;;;13.00;9.80;;;;;;;;;;5058513;28;20203;-64
2023/04/19 10:02:01;;;;;;;12.37;9.43;;;;;;;;;;5058767;28;20227;-64
2023/04/19 10:04:31;;;;;;;12.07;9.53;;;;;;;;;;5058570;28;20208;-62
2023/04/19 10:07:19;;;;;;;14.03;9.53;;;;;;;;;;5056974;28;20209;-64
2023/04/19 10:09:50;;;;;;;12.83;9.57;;;;;;;;;;5056489;28;20207;-63
2023/04/19 10:12:23;;;;;;;13.57;8.73;;;;;;;;;;5058666;28;20207;-62
2023/04/19 10:15:13;;;;;;;11.97;8.60;;;;;;;;;;5058082;28;20245;-62
2023/04/19 10:17:41;;;;;;;11.83;8.53;;;;;;;;;;5058081;28;20227;-62
2023/04/19 10:20:17;;;;;;;13.07;9.40;;;;;;;;;;5058449;28;20238;-61
2023/04/19 10:22:45;;;;;;;11.53;8.60;;;;;;;;;;5058648;28;20241;-64
2023/04/19 10:25:14;;;;;;;10.83;7.77;;;;;;;;;;5042258;28;20265;-64
2023/04/19 10:27:45;;;;;;;9.60;8.50;;;;;;;;;;5057258;28;20194;-64
2023/04/19 10:30:19;;;;;;;11.57;8.63;;;;;;;;;;5057336;28;20195;-64
2023/04/19 10:32:52;;;;;;;11.47;8.43;;;;;;;;;;5054886;28;20210;-64
2023/04/19 10:35:22;;;;;;;12.07;8.70;;;;;;;;;;5058100;28;20235;-64
2023/04/19 10:38:06;;;;;;;10.20;7.87;;;;;;;;;;5058382;28;20265;-64
2023/04/19 10:41:10;;;;;;;11.93;8.47;;;;;;;;;;5056677;28;20282;-63
2023/04/19 10:43:44;;;;;;;11.63;8.80;;;;;;;;;;4970086;28;20728;-64
2023/04/19 10:46:16;;;;;;;11.10;8.67;;;;;;;;;;5039737;28;20228;-64
2023/04/19 10:48:53;;;;;;;12.80;9.10;;;;;;;;;;5051619;28;20610;-64
2023/04/19 10:51:23;;;;;;;12.30;8.90;;;;;;;;;;5058172;28;20246;-64
2023/04/19 10:53:55;;;;;;;11.07;8.17;;;;;;;;;;5057838;28;20715;-63
2023/04/19 10:56:43;;;;;;;12.43;7.37;;;;;;;;;;5054900;28;20218;-61
2023/04/19 10:59:20;;;;;;;8.73;6.93;;;;;;;;;;5053391;28;20584;-63
2023/04/19 11:01:50;;;;;;;8.13;6.73;;;;;;;;;;5056278;28;20568;-61
2023/04/19 11:04:19;;;;;;;9.77;7.93;;;;;;;;;;5057954;28;20202;-62
2023/04/19 11:07:02;;;;;;;8.73;7.10;;;;;;;;;;5057551;28;20660;-62
2023/04/19 11:09:33;;;;;;;10.27;8.03;;;;;;;;;;5057651;28;20653;-64
2023/04/19 11:12:03;;;;;;;10.77;8.00;;;;;;;;;;5057725;28;20290;-64
2023/04/19 11:14:32;;;;;;;10.70;8.00;;;;;;;;;;5051714;28;20227;-64
2023/04/19 11:17:01;;;;;;;8.53;7.00;;;;;;;;;;5051916;28;20225;-64
2023/04/19 11:19:29;;;;;;;10.17;6.57;;;;;;;;;;5048633;28;20231;-63
2023/04/19 11:21:58;;;;;;;9.60;6.83;;;;;;;;;;5056547;28;20231;-63
2023/04/19 11:24:27;;;;;;;7.63;6.03;;;;;;;;;;5052475;28;20304;-62
2023/04/19 11:26:55;;;;;;;9.60;7.30;;;;;;;;;;5055505;28;20226;-62
2023/04/19 11:29:23;;;;;;;11.70;8.03;;;;;;;;;;5050880;28;20195;-63
2023/04/19 11:31:51;;;;;;;15.93;7.07;;;;;;;;;;5050376;28;20225;-64
2023/04/19 11:34:22;;;;;;;10.13;7.00;;;;;;;;;;5051612;28;20283;-63
2023/04/19 11:36:50;;;;;;;7.43;6.37;;;;;;;;;;5052896;28;20226;-63
2023/04/19 11:39:18;;;;;;;7.30;6.10;;;;;;;;;;5053823;28;20271;-63
2023/04/19 11:41:48;;;;;;;7.90;7.10;;;;;;;;;;5054660;28;20232;-63
2023/04/19 11:44:18;;;;;;;9.37;6.73;;;;;;;;;;5050883;28;20573;-64
2023/04/19 11:47:02;;;;;;;7.93;6.07;;;;;;;;;;5055390;28;20226;-63
2023/04/19 11:49:31;;;;;;;6.60;5.77;;;;;;;;;;5053085;28;20196;-63
2023/04/19 11:52:02;;;;;;;11.77;6.37;;;;;;;;;;5061388;28;20218;-64
2023/04/19 11:54:33;;;;;;;8.63;5.27;;;;;;;;;;5057816;28;20213;-63
2023/04/19 11:57:03;;;;;;;8.10;5.97;;;;;;;;;;5058870;28;20318;-63
2023/04/19 11:59:32;;;;;;;12.40;5.67;;;;;;;;;;5060376;28;20249;-63
2023/04/19 12:02:10;;;;;;;8.57;5.90;;;;;;;;;;5055442;28;20229;-64
2023/04/19 12:04:38;;;;;;;8.97;6.13;;;;;;;;;;5057340;28;20199;-63
2023/04/19 12:07:07;;;;;;;9.43;6.47;;;;;;;;;;5054004;28;20199;-63
2023/04/19 12:09:35;;;;;;;7.53;6.20;;;;;;;;;;5055007;28;20198;-64
2023/04/19 12:12:05;;;;;;;8.57;6.43;;;;;;;;;;5054879;28;20234;-64
2023/04/19 12:14:34;;;;;;;7.50;5.50;;;;;;;;;;5058366;28;20662;-63
2023/04/19 12:17:09;;;;;;;8.70;6.13;;;;;;;;;;5056960;28;20230;-64
2023/04/19 12:19:42;;;;;;;6.23;5.57;;;;;;;;;;5052922;28;20240;-63
2023/04/19 12:22:11;;;;;;;11.97;5.70;;;;;;;;;;5048665;28;20257;-64
2023/04/19 12:24:40;;;;;;;6.87;5.40;;;;;;;;;;5055859;28;20215;-64
2023/04/19 12:27:10;;;;;;;7.63;6.00;;;;;;;;;;5057973;28;20208;-63
2023/04/19 12:29:38;;;;;;;9.07;5.77;;;;;;;;;;5053005;28;20227;-64
2023/04/19 12:32:06;;;;;;;7.83;5.47;;;;;;;;;;5057273;28;20206;-61
2023/04/19 12:34:34;;;;;;;8.37;6.00;;;;;;;;;;5057176;28;20654;-62
2023/04/19 12:37:03;;;;;;;8.50;6.20;;;;;;;;;;5054455;28;20214;-63
2023/04/19 12:39:31;;;;;;;7.50;6.13;;;;;;;;;;5052658;28;20230;-63
2023/04/19 12:42:00;;;;;;;10.23;5.97;;;;;;;;;;5057453;28;20203;-63
2023/04/19 12:44:29;;;;;;;6.07;4.97;;;;;;;;;;5054104;28;20198;-63
2023/04/19 12:46:57;;;;;;;7.47;4.73;;;;;;;;;;5059119;28;20246;-63
2023/04/19 12:49:25;;;;;;;7.83;5.73;;;;;;;;;;5054164;28;20227;-63
2023/04/19 12:51:53;;;;;;;5.00;4.23;;;;;;;;;;5058025;28;20205;-64
2023/04/19 12:54:24;;;;;;;4.30;3.90;;;;;;;;;;5050727;28;20204;-64
2023/04/19 12:56:52;;;;;;;6.60;3.90;;;;;;;;;;5054089;28;20223;-63
2023/04/19 12:59:20;;;;;;;6.40;3.93;;;;;;;;;;5058863;28;20285;-63
2023/04/19 13:01:50;;;;;;;3.93;3.50;;;;;;;;;;5056503;28;20206;-63
2023/04/19 13:04:18;;;;;;;4.03;3.63;;;;;;;;;;5055434;28;20203;-64
2023/04/19 13:06:47;;;;;;;4.40;3.00;;;;;;;;;;5054407;28;20238;-64
2023/04/19 13:09:15;;;;;;;5.23;3.30;;;;;;;;;;5057104;28;20244;-64
2023/04/19 13:11:43;;;;;;;3.50;3.20;;;;;;;;;;5053470;28;20205;-64
2023/04/19 13:14:11;;;;;;;4.53;3.07;;;;;;;;;;5055982;28;20226;-63
2023/04/19 13:16:39;;;;;;;3.93;3.53;;;;;;;;;;5050723;28;20681;-63
2023/04/19 13:19:08;;;;;;;4.10;3.23;;;;;;;;;;5055246;28;20231;-64
2023/04/19 13:21:36;;;;;;;3.40;3.10;;;;;;;;;;5056940;28;20565;-63
2023/04/19 13:24:05;;;;;;;3.47;2.93;;;;;;;;;;5059636;28;20207;-65
2023/04/19 13:26:33;;;;;;;3.30;2.70;;;;;;;;;;5059476;28;20632;-65
2023/04/19 13:29:01;;;;;;;3.70;3.40;;;;;;;;;;5059562;28;20203;-64
2023/04/19 13:31:29;;;;;;;3.17;2.87;;;;;;;;;;5053937;28;20827;-65
2023/04/19 13:33:59;;;;;;;3.47;3.17;;;;;;;;;;5059204;28;20206;-64
2023/04/19 13:36:31;;;;;;;2.73;2.50;;;;;;;;;;5059249;28;20705;-65
2023/04/19 13:38:59;;;;;;;3.20;2.90;;;;;;;;;;5059416;28;20249;-64
2023/04/19 13:41:27;;;;;;;2.87;2.67;;;;;;;;;;5059668;28;20221;-65
2023/04/19 13:43:55;;;;;;;2.40;2.20;;;;;;;;;;5059195;28;20211;-65
2023/04/19 13:46:23;;;;;;;3.93;2.73;;;;;;;;;;5059078;28;20253;-65
2023/04/19 13:48:51;;;;;;;2.63;2.43;;;;;;;;;;5050030;28;20208;-65
2023/04/19 13:51:19;;;;;;;2.63;2.00;;;;;;;;;;5039335;28;20218;-64
2023/04/19 13:53:49;;;;;;;3.50;2.40;;;;;;;;;;5039074;28;20239;-65
2023/04/19 13:56:16;;;;;;;3.93;2.00;;;;;;;;;;5039043;28;20235;-64
2023/04/19 13:58:45;;;;;;;2.20;1.93;;;;;;;;;;5045117;28;20638;-65
2023/04/19 14:01:13;;;;;;;2.53;2.10;;;;;;;;;;5059189;28;20227;-65
2023/04/19 14:03:41;;;;;;;1.83;1.73;;;;;;;;;;5059122;28;20206;-65
2023/04/19 14:06:09;;;;;;;2.17;1.97;;;;;;;;;;5048856;28;20273;-62
2023/04/19 14:08:37;;;;;;;1.53;1.43;;;;;;;;;;5038500;28;20261;-63
2023/04/19 14:11:07;;;;;;;1.63;1.53;;;;;;;;;;5039010;28;20261;-63
2023/04/19 14:13:35;;;;;;;2.00;1.80;;;;;;;;;;5055749;28;20203;-63
2023/04/19 14:16:03;;;;;;;2.53;1.67;;;;;;;;;;5058674;28;20642;-63
2023/04/19 14:18:31;;;;;;;1.93;1.83;;;;;;;;;;5058455;28;20321;-63
2023/04/19 14:20:59;;;;;;;1.97;1.87;;;;;;;;;;5058430;28;20584;-63
2023/04/19 14:23:27;;;;;;;2.07;1.67;;;;;;;;;;5044913;28;20257;-63
2023/04/19 14:25:55;;;;;;;1.97;1.87;;;;;;;;;;5042565;28;20225;-63
2023/04/19 14:28:25;;;;;;;2.20;2.00;;;;;;;;;;5058192;28;20298;-63
2023/04/19 14:30:53;;;;;;;1.77;1.67;;;;;;;;;;5058375;28;20750;-63
2023/04/19 14:33:20;;;;;;;1.90;1.80;;;;;;;;;;5058390;28;20286;-63
2023/04/19 14:35:48;;;;;;;2.10;2.00;;;;;;;;;;5058551;28;20227;-64
2023/04/19 14:38:16;;;;;;;2.73;1.63;;;;;;;;;;5053930;28;20646;-62
2023/04/19 14:40:45;;;;;;;1.97;1.70;;;;;;;;;;5038410;28;20223;-62
2023/04/19 14:43:15;;;;;;;1.93;1.80;;;;;;;;;;5038385;28;20217;-62
2023/04/19 14:45:44;;;;;;;1.80;1.70;;;;;;;;;;5038517;28;20274;-62
2023/04/19 14:48:12;;;;;;;2.13;1.40;;;;;;;;;;5037972;28;20207;-64
2023/04/19 14:50:40;;;;;;;1.80;1.70;;;;;;;;;;5037907;28;20569;-62
2023/04/19 14:53:08;;;;;;;4.30;2.63;;;;;;;;;;5038044;28;20207;-62